Time;durP1;ratioP1;P1;durP2;ratioP2;P2;SDS_P1;SDS_P2;PMS_P1;PMS_P2;Temp;Humidity;BMP_temperature;BMP_pressure;BME280_temperature;BME280_humidity;BME280_pressure;Samples;Min_cycle;Max_cycle;Signal;HPM_P1;HPM_P2
2023/12/24 00:01:10;;;;;;;6.60;2.70;;;;;;;;;;5028840;28;20873;-55
2023/12/24 00:03:37;;;;;;;4.50;2.90;;;;;;;;;;5028195;28;20578;-55
2023/12/24 00:06:03;;;;;;;3.23;2.53;;;;;;;;;;5028756;28;20213;-56
2023/12/24 00:08:29;;;;;;;3.23;2.63;;;;;;;;;;5028768;28;20625;-56
2023/12/24 00:10:56;;;;;;;5.10;2.83;;;;;;;;;;5029253;28;20169;-55
2023/12/24 00:13:22;;;;;;;6.23;3.10;;;;;;;;;;5028382;28;20205;-56
2023/12/24 00:15:48;;;;;;;6.87;3.63;;;;;;;;;;5028730;28;20719;-56
2023/12/24 00:18:14;;;;;;;6.17;2.83;;;;;;;;;;5027587;28;20166;-56
2023/12/24 00:20:40;;;;;;;6.37;3.40;;;;;;;;;;5028683;28;20169;-54
2023/12/24 00:23:08;;;;;;;5.40;3.07;;;;;;;;;;5028717;28;20161;-55
2023/12/24 00:25:37;;;;;;;5.80;3.70;;;;;;;;;;5028912;28;20281;-55
2023/12/24 00:28:03;;;;;;;7.17;4.03;;;;;;;;;;5028713;28;20488;-56
2023/12/24 00:30:30;;;;;;;5.17;4.13;;;;;;;;;;5028821;28;20584;-55
2023/12/24 00:32:56;;;;;;;6.53;3.60;;;;;;;;;;5027417;28;20621;-56
2023/12/24 00:35:22;;;;;;;7.60;3.90;;;;;;;;;;5028632;28;20198;-55
2023/12/24 00:37:49;;;;;;;6.20;4.17;;;;;;;;;;5028585;28;20595;-56
2023/12/24 00:40:16;;;;;;;5.37;3.77;;;;;;;;;;5028886;28;20170;-56
2023/12/24 00:42:42;;;;;;;5.77;3.90;;;;;;;;;;5028441;28;20169;-55
2023/12/24 00:45:11;;;;;;;8.23;3.80;;;;;;;;;;5028632;28;20731;-56
2023/12/24 00:47:38;;;;;;;4.23;3.17;;;;;;;;;;5027561;28;20170;-56
2023/12/24 00:50:07;;;;;;;7.23;4.00;;;;;;;;;;5028432;28;20177;-55
2023/12/24 00:52:34;;;;;;;6.40;3.90;;;;;;;;;;5028130;28;20248;-56
2023/12/24 00:55:00;;;;;;;3.90;2.83;;;;;;;;;;5028298;28;20247;-55
2023/12/24 00:57:26;;;;;;;4.17;3.17;;;;;;;;;;5031424;28;20205;-55
2023/12/24 00:59:52;;;;;;;3.47;3.13;;;;;;;;;;5032527;28;20170;-60
2023/12/24 01:02:18;;;;;;;6.50;4.63;;;;;;;;;;5030976;28;20170;-59
2023/12/24 01:04:44;;;;;;;11.67;4.07;;;;;;;;;;5029517;28;20185;-60
2023/12/24 01:07:10;;;;;;;3.87;3.27;;;;;;;;;;5031921;28;20190;-60
2023/12/24 01:09:37;;;;;;;10.80;4.43;;;;;;;;;;5031932;28;20177;-60
2023/12/24 01:12:03;;;;;;;7.40;4.40;;;;;;;;;;5031956;28;20162;-60
2023/12/24 01:14:29;;;;;;;10.67;4.60;;;;;;;;;;5031875;28;20194;-60
2023/12/24 01:16:55;;;;;;;5.67;3.77;;;;;;;;;;5031171;28;20268;-60
2023/12/24 01:19:22;;;;;;;5.30;4.53;;;;;;;;;;5031009;28;20185;-58
2023/12/24 01:21:48;;;;;;;6.53;4.47;;;;;;;;;;5031750;28;20170;-60
2023/12/24 01:24:14;;;;;;;6.37;4.40;;;;;;;;;;5031922;28;20186;-60
2023/12/24 01:26:40;;;;;;;5.57;3.73;;;;;;;;;;5031465;28;20173;-60
2023/12/24 01:29:06;;;;;;;6.20;3.60;;;;;;;;;;5032100;28;20174;-60
2023/12/24 01:31:33;;;;;;;11.07;3.97;;;;;;;;;;5031103;28;20182;-60
2023/12/24 01:33:59;;;;;;;4.77;3.13;;;;;;;;;;5030966;28;20186;-59
2023/12/24 01:36:25;;;;;;;5.90;3.37;;;;;;;;;;5031675;28;20759;-59
2023/12/24 01:38:51;;;;;;;5.33;3.20;;;;;;;;;;5031645;28;20645;-60
2023/12/24 01:41:17;;;;;;;7.03;3.97;;;;;;;;;;5031403;28;20158;-60
2023/12/24 01:43:44;;;;;;;3.43;2.90;;;;;;;;;;5031321;28;20216;-59
2023/12/24 01:46:12;;;;;;;4.77;2.73;;;;;;;;;;5031300;28;20173;-60
2023/12/24 01:48:39;;;;;;;8.43;2.80;;;;;;;;;;5030538;28;20205;-60
2023/12/24 01:51:07;;;;;;;3.57;3.03;;;;;;;;;;5031650;28;20621;-60
2023/12/24 01:53:33;;;;;;;5.47;3.20;;;;;;;;;;5031411;28;20689;-60
2023/12/24 01:56:01;;;;;;;3.30;2.50;;;;;;;;;;5031396;28;20195;-59
2023/12/24 01:58:27;;;;;;;4.70;3.40;;;;;;;;;;5031160;28;20189;-60
2023/12/24 02:00:54;;;;;;;5.47;2.90;;;;;;;;;;5030299;28;20284;-59
2023/12/24 02:03:20;;;;;;;4.93;2.60;;;;;;;;;;5027732;28;20182;-59
2023/12/24 02:05:48;;;;;;;3.63;2.43;;;;;;;;;;5030141;28;20209;-60
2023/12/24 02:08:16;;;;;;;3.63;2.20;;;;;;;;;;5029793;28;20253;-60
2023/12/24 02:10:42;;;;;;;3.40;2.47;;;;;;;;;;5031022;28;20201;-56
2023/12/24 02:13:08;;;;;;;3.63;2.67;;;;;;;;;;5030560;28;20233;-56
2023/12/24 02:15:35;;;;;;;4.20;1.73;;;;;;;;;;5030314;28;20229;-57
2023/12/24 02:18:01;;;;;;;4.00;2.20;;;;;;;;;;5029833;28;20574;-57
2023/12/24 02:20:27;;;;;;;4.57;2.53;;;;;;;;;;5030590;28;20204;-57
2023/12/24 02:22:53;;;;;;;3.67;2.40;;;;;;;;;;5030428;28;20216;-57
2023/12/24 02:25:19;;;;;;;4.10;2.83;;;;;;;;;;5030561;28;20166;-57
2023/12/24 02:28:04;;;;;;;3.20;1.83;;;;;;;;;;5030689;28;20634;-56
2023/12/24 02:30:34;;;;;;;2.90;1.93;;;;;;;;;;5030401;28;20235;-57
2023/12/24 02:33:00;;;;;;;2.43;1.90;;;;;;;;;;5029089;28;20162;-57
2023/12/24 02:35:28;;;;;;;3.13;1.90;;;;;;;;;;5030255;28;20220;-56
2023/12/24 02:37:54;;;;;;;2.83;1.70;;;;;;;;;;5030512;28;20447;-57
2023/12/24 02:40:20;;;;;;;2.30;1.90;;;;;;;;;;5030517;28;20181;-57
2023/12/24 02:42:46;;;;;;;3.73;1.67;;;;;;;;;;5030107;28;20213;-58
2023/12/24 02:45:12;;;;;;;2.97;2.33;;;;;;;;;;5028541;28;20558;-56
2023/12/24 02:47:38;;;;;;;6.20;2.60;;;;;;;;;;5028867;28;20185;-57
2023/12/24 02:50:05;;;;;;;2.92;1.90;;;;;;;;;;5029291;28;20428;-56
2023/12/24 02:52:31;;;;;;;2.07;1.93;;;;;;;;;;5048991;28;20192;-57
2023/12/24 02:54:57;;;;;;;3.37;1.90;;;;;;;;;;5050045;28;20610;-57
2023/12/24 02:57:23;;;;;;;2.30;1.87;;;;;;;;;;5049482;28;20235;-56
2023/12/24 02:59:49;;;;;;;3.37;1.60;;;;;;;;;;5050646;28;20684;-57
2023/12/24 03:02:15;;;;;;;3.23;1.70;;;;;;;;;;5049326;28;20175;-56
2023/12/24 03:04:41;;;;;;;3.63;1.80;;;;;;;;;;5049725;28;20172;-55
2023/12/24 03:07:07;;;;;;;2.10;1.77;;;;;;;;;;5049757;28;20511;-56
2023/12/24 03:09:34;;;;;;;3.77;1.93;;;;;;;;;;5049618;28;20227;-55
2023/12/24 03:12:00;;;;;;;3.77;1.83;;;;;;;;;;5049952;28;20169;-56
2023/12/24 03:14:26;;;;;;;3.00;1.93;;;;;;;;;;5049685;28;20760;-56
2023/12/24 03:16:54;;;;;;;2.63;2.27;;;;;;;;;;5048548;28;20581;-56
2023/12/24 03:19:20;;;;;;;2.77;1.70;;;;;;;;;;5048896;28;20184;-56
2023/12/24 03:21:46;;;;;;;2.73;2.00;;;;;;;;;;5049627;28;20643;-56
2023/12/24 03:24:13;;;;;;;1.90;1.80;;;;;;;;;;5049427;28;20154;-56
2023/12/24 03:26:39;;;;;;;2.23;2.03;;;;;;;;;;5049612;28;20165;-57
2023/12/24 03:29:05;;;;;;;2.50;2.00;;;;;;;;;;5049730;28;20178;-56
2023/12/24 03:31:31;;;;;;;2.53;2.00;;;;;;;;;;5049382;28;20668;-56
2023/12/24 03:33:57;;;;;;;3.87;2.20;;;;;;;;;;5048489;28;20180;-56
2023/12/24 03:36:23;;;;;;;3.70;2.17;;;;;;;;;;5049296;28;20189;-56
2023/12/24 03:38:49;;;;;;;3.53;2.27;;;;;;;;;;5049624;28;20169;-56
2023/12/24 03:41:16;;;;;;;2.40;2.20;;;;;;;;;;5049075;28;20176;-57
2023/12/24 03:43:42;;;;;;;2.40;2.20;;;;;;;;;;5041042;28;20559;-56
2023/12/24 03:46:08;;;;;;;2.20;2.00;;;;;;;;;;5029330;28;20186;-56
2023/12/24 03:48:37;;;;;;;2.37;2.03;;;;;;;;;;5028410;28;20208;-56
2023/12/24 03:51:03;;;;;;;2.20;2.00;;;;;;;;;;5029121;28;20181;-56
2023/12/24 03:53:29;;;;;;;3.50;2.17;;;;;;;;;;5029180;28;20546;-56
2023/12/24 03:55:55;;;;;;;2.47;2.33;;;;;;;;;;5029269;28;20523;-57
2023/12/24 03:58:21;;;;;;;2.20;1.97;;;;;;;;;;5029352;28;20689;-56
2023/12/24 04:00:47;;;;;;;2.27;1.87;;;;;;;;;;5029339;28;20166;-57
2023/12/24 04:03:13;;;;;;;5.07;2.40;;;;;;;;;;5027980;28;20500;-56
2023/12/24 04:05:39;;;;;;;1.67;1.57;;;;;;;;;;5029028;28;20165;-56
2023/12/24 04:08:05;;;;;;;1.90;1.80;;;;;;;;;;5028540;28;20236;-56
2023/12/24 04:10:31;;;;;;;1.87;1.77;;;;;;;;;;5029404;28;20172;-56
2023/12/24 04:13:03;;;;;;;1.60;1.50;;;;;;;;;;5028960;28;20659;-56
2023/12/24 04:15:30;;;;;;;1.63;1.53;;;;;;;;;;5028951;28;20229;-56
2023/12/24 04:17:56;;;;;;;2.23;1.70;;;;;;;;;;5027676;28;20324;-56
2023/12/24 04:20:22;;;;;;;1.87;1.77;;;;;;;;;;5028814;28;20244;-56
2023/12/24 04:22:48;;;;;;;1.90;1.70;;;;;;;;;;5028920;28;20172;-56
2023/12/24 04:25:14;;;;;;;2.67;1.40;;;;;;;;;;5028888;28;20327;-56
2023/12/24 04:27:40;;;;;;;2.20;1.80;;;;;;;;;;5028523;28;20657;-56
2023/12/24 04:30:06;;;;;;;2.03;1.57;;;;;;;;;;5029054;28;20182;-56
2023/12/24 04:32:32;;;;;;;1.60;1.50;;;;;;;;;;5031412;28;20537;-57
2023/12/24 04:34:58;;;;;;;1.73;1.63;;;;;;;;;;5032729;28;20691;-57
2023/12/24 04:37:24;;;;;;;1.53;1.43;;;;;;;;;;5032332;28;20255;-57
2023/12/24 04:39:50;;;;;;;1.80;1.70;;;;;;;;;;5033447;28;20614;-57
2023/12/24 04:42:16;;;;;;;1.70;1.60;;;;;;;;;;5032461;28;20629;-57
2023/12/24 04:44:42;;;;;;;1.60;1.50;;;;;;;;;;5032685;28;20687;-58
2023/12/24 04:47:08;;;;;;;1.93;1.27;;;;;;;;;;5031432;28;20247;-58
2023/12/24 04:49:35;;;;;;;4.70;1.40;;;;;;;;;;5031888;28;20180;-58
2023/12/24 04:52:01;;;;;;;1.60;1.30;;;;;;;;;;5032623;28;20174;-57
2023/12/24 04:54:27;;;;;;;2.50;1.57;;;;;;;;;;5032139;28;20571;-58
2023/12/24 04:56:53;;;;;;;1.40;1.30;;;;;;;;;;5032079;28;20263;-57
2023/12/24 04:59:19;;;;;;;1.60;1.50;;;;;;;;;;5032655;28;20158;-57
2023/12/24 05:01:45;;;;;;;1.63;1.10;;;;;;;;;;5031161;28;20610;-58
2023/12/24 05:04:11;;;;;;;1.53;1.47;;;;;;;;;;5031624;28;20170;-58
2023/12/24 05:06:37;;;;;;;1.10;1.10;;;;;;;;;;5031974;28;20259;-57
2023/12/24 05:09:03;;;;;;;3.17;1.20;;;;;;;;;;5031886;28;20177;-58
2023/12/24 05:11:29;;;;;;;1.43;1.20;;;;;;;;;;5031563;28;20182;-58
2023/12/24 05:13:55;;;;;;;1.00;1.00;;;;;;;;;;5032170;28;20197;-58
2023/12/24 05:16:21;;;;;;;1.33;1.10;;;;;;;;;;5031197;28;20713;-57
2023/12/24 05:18:47;;;;;;;3.50;1.30;;;;;;;;;;5030678;28;20166;-57
2023/12/24 05:21:13;;;;;;;3.07;1.93;;;;;;;;;;5031858;28;20170;-57
2023/12/24 05:23:39;;;;;;;1.20;1.17;;;;;;;;;;5031621;28;20571;-57
2023/12/24 05:26:05;;;;;;;1.23;1.17;;;;;;;;;;5031791;28;20206;-57
2023/12/24 05:28:31;;;;;;;1.40;1.30;;;;;;;;;;5031692;28;20577;-57
2023/12/24 05:30:57;;;;;;;1.23;1.20;;;;;;;;;;5031316;28;20538;-57
2023/12/24 05:33:23;;;;;;;1.60;1.50;;;;;;;;;;5030594;28;20189;-57
2023/12/24 05:35:49;;;;;;;1.30;1.20;;;;;;;;;;5031366;28;20174;-57
2023/12/24 05:38:15;;;;;;;1.20;1.20;;;;;;;;;;5031495;28;20166;-57
2023/12/24 05:40:41;;;;;;;1.37;1.37;;;;;;;;;;5031536;28;20449;-57
2023/12/24 05:43:07;;;;;;;1.90;1.50;;;;;;;;;;5028156;28;20662;-59
2023/12/24 05:45:35;;;;;;;1.53;1.43;;;;;;;;;;5011619;28;20701;-58
2023/12/24 05:48:01;;;;;;;1.50;1.40;;;;;;;;;;5010535;28;20166;-59
2023/12/24 05:50:27;;;;;;;1.40;1.30;;;;;;;;;;5011830;28;20170;-59
2023/12/24 05:52:53;;;;;;;1.43;1.33;;;;;;;;;;5011373;28;20170;-59
2023/12/24 05:55:19;;;;;;;4.93;1.70;;;;;;;;;;5011545;28;20186;-58
2023/12/24 05:57:45;;;;;;;1.20;1.20;;;;;;;;;;5011116;28;20229;-59
2023/12/24 06:00:11;;;;;;;1.10;1.10;;;;;;;;;;5011553;28;20166;-59
2023/12/24 06:02:37;;;;;;;1.67;1.57;;;;;;;;;;5010121;28;20701;-59
2023/12/24 06:05:04;;;;;;;3.00;1.30;;;;;;;;;;5011281;28;20171;-59
2023/12/24 06:07:30;;;;;;;1.50;1.40;;;;;;;;;;5010969;28;20638;-60
2023/12/24 06:09:59;;;;;;;1.80;1.40;;;;;;;;;;5011085;28;20170;-59
2023/12/24 06:12:25;;;;;;;1.60;1.50;;;;;;;;;;5010958;28;20513;-58
2023/12/24 06:14:51;;;;;;;1.87;1.50;;;;;;;;;;5010868;28;20173;-59
2023/12/24 06:17:17;;;;;;;1.70;1.60;;;;;;;;;;5010083;28;20305;-59
2023/12/24 06:19:44;;;;;;;4.13;1.57;;;;;;;;;;5011078;28;20175;-58
2023/12/24 06:22:10;;;;;;;1.40;1.30;;;;;;;;;;5010632;28;20171;-58
2023/12/24 06:24:36;;;;;;;1.43;1.37;;;;;;;;;;5010658;28;20186;-58
2023/12/24 06:27:02;;;;;;;1.40;1.30;;;;;;;;;;5011040;28;20269;-58
2023/12/24 06:29:28;;;;;;;1.90;1.60;;;;;;;;;;5010605;28;20480;-58
2023/12/24 06:31:57;;;;;;;1.57;1.40;;;;;;;;;;5010194;28;20178;-58
2023/12/24 06:34:23;;;;;;;1.90;1.40;;;;;;;;;;5010425;28;20178;-58
2023/12/24 06:36:49;;;;;;;2.53;1.40;;;;;;;;;;5010572;28;20632;-59
2023/12/24 06:39:15;;;;;;;1.83;1.67;;;;;;;;;;5010673;28;20155;-59
2023/12/24 06:41:41;;;;;;;1.80;1.70;;;;;;;;;;5010206;28;20178;-58
2023/12/24 06:44:07;;;;;;;1.50;1.40;;;;;;;;;;5010125;28;20182;-59
2023/12/24 06:46:33;;;;;;;1.50;1.40;;;;;;;;;;5009933;28;20217;-59
2023/12/24 06:48:59;;;;;;;1.50;1.40;;;;;;;;;;5009737;28;20245;-59
2023/12/24 06:51:28;;;;;;;1.67;1.57;;;;;;;;;;5010415;28;20582;-59
2023/12/24 06:53:54;;;;;;;1.73;1.63;;;;;;;;;;5009564;28;20171;-59
2023/12/24 06:56:20;;;;;;;1.77;1.67;;;;;;;;;;5010240;28;20198;-59
2023/12/24 06:58:46;;;;;;;1.83;1.60;;;;;;;;;;5009970;28;20190;-58
2023/12/24 07:01:12;;;;;;;1.93;1.60;;;;;;;;;;5010069;28;20613;-59
2023/12/24 07:03:38;;;;;;;1.63;1.53;;;;;;;;;;5008998;28;20170;-59
2023/12/24 07:06:04;;;;;;;1.60;1.50;;;;;;;;;;5010387;28;20516;-59
2023/12/24 07:08:31;;;;;;;1.50;1.40;;;;;;;;;;5009983;28;20183;-59
2023/12/24 07:10:57;;;;;;;1.63;1.53;;;;;;;;;;5010118;28;20171;-59
2023/12/24 07:13:23;;;;;;;1.20;1.10;;;;;;;;;;5009690;28;20233;-58
2023/12/24 07:15:51;;;;;;;1.90;1.30;;;;;;;;;;5009872;28;20230;-58
2023/12/24 07:18:17;;;;;;;2.33;1.50;;;;;;;;;;5008951;28;20163;-59
2023/12/24 07:20:44;;;;;;;1.50;1.40;;;;;;;;;;5010468;28;20198;-59
2023/12/24 07:23:10;;;;;;;1.40;1.30;;;;;;;;;;5009760;28;20257;-59
2023/12/24 07:25:36;;;;;;;1.40;1.30;;;;;;;;;;5010177;28;20291;-58
2023/12/24 07:28:02;;;;;;;2.37;1.50;;;;;;;;;;5009470;28;20647;-59
2023/12/24 07:30:29;;;;;;;1.50;1.40;;;;;;;;;;5009718;28;20167;-58
2023/12/24 07:32:55;;;;;;;1.47;1.10;;;;;;;;;;5008429;28;20179;-59
2023/12/24 07:35:21;;;;;;;1.57;1.47;;;;;;;;;;5009970;28;20201;-59
2023/12/24 07:37:48;;;;;;;1.20;1.20;;;;;;;;;;5009072;28;20197;-58
2023/12/24 07:40:14;;;;;;;1.17;1.17;;;;;;;;;;5010064;28;20155;-59
2023/12/24 07:42:42;;;;;;;1.20;1.20;;;;;;;;;;5009472;28;20264;-58
2023/12/24 07:45:09;;;;;;;1.60;1.50;;;;;;;;;;5029034;28;20569;-59
2023/12/24 07:47:35;;;;;;;1.47;1.37;;;;;;;;;;5027875;28;20166;-59
2023/12/24 07:50:01;;;;;;;1.00;0.97;;;;;;;;;;5029437;28;20173;-58
2023/12/24 07:52:27;;;;;;;1.10;1.10;;;;;;;;;;5028647;28;20637;-58
2023/12/24 07:54:53;;;;;;;1.20;1.20;;;;;;;;;;5029187;28;20162;-59
2023/12/24 07:57:19;;;;;;;2.30;1.20;;;;;;;;;;5027630;28;20674;-58
2023/12/24 07:59:45;;;;;;;1.20;1.10;;;;;;;;;;5027630;28;20254;-58
2023/12/24 08:02:11;;;;;;;2.27;1.30;;;;;;;;;;5027563;28;20284;-56
2023/12/24 08:04:37;;;;;;;1.30;1.20;;;;;;;;;;5028147;28;20208;-56
2023/12/24 08:07:03;;;;;;;0.93;0.93;;;;;;;;;;5028264;28;20591;-56
2023/12/24 08:09:29;;;;;;;1.23;1.20;;;;;;;;;;5028977;28;20534;-56
2023/12/24 08:11:55;;;;;;;1.07;1.07;;;;;;;;;;5028694;28;20181;-56
2023/12/24 08:14:21;;;;;;;1.00;1.00;;;;;;;;;;5028901;28;20205;-57
2023/12/24 08:16:47;;;;;;;1.20;1.10;;;;;;;;;;5027764;28;20233;-56
2023/12/24 08:19:13;;;;;;;1.50;1.10;;;;;;;;;;5028334;28;20158;-56
2023/12/24 08:21:39;;;;;;;1.70;1.20;;;;;;;;;;5028958;28;20766;-56
2023/12/24 08:24:05;;;;;;;1.03;1.03;;;;;;;;;;5028614;28;20169;-56
2023/12/24 08:26:31;;;;;;;2.47;1.17;;;;;;;;;;5028593;28;20624;-56
2023/12/24 08:28:58;;;;;;;1.13;1.03;;;;;;;;;;5029060;28;20520;-56
2023/12/24 08:31:24;;;;;;;1.50;1.33;;;;;;;;;;5028650;28;20200;-57
2023/12/24 08:33:50;;;;;;;0.90;0.90;;;;;;;;;;5027498;28;20178;-56
2023/12/24 08:36:17;;;;;;;2.20;1.30;;;;;;;;;;5028685;28;20205;-56
2023/12/24 08:38:43;;;;;;;1.10;1.00;;;;;;;;;;5028444;28;20165;-56
2023/12/24 08:41:09;;;;;;;1.37;1.27;;;;;;;;;;5028548;28;20166;-56
2023/12/24 08:43:35;;;;;;;1.20;1.10;;;;;;;;;;5028109;28;20680;-57
2023/12/24 08:46:03;;;;;;;1.30;1.10;;;;;;;;;;5028179;28;20217;-57
2023/12/24 08:48:29;;;;;;;1.10;1.10;;;;;;;;;;5027501;28;20178;-56
2023/12/24 08:50:56;;;;;;;1.30;1.20;;;;;;;;;;5028913;28;20506;-56
2023/12/24 08:53:22;;;;;;;1.17;1.17;;;;;;;;;;5028551;28;20549;-56
2023/12/24 08:55:48;;;;;;;1.73;1.00;;;;;;;;;;5028495;28;20256;-57
2023/12/24 08:58:14;;;;;;;2.53;0.90;;;;;;;;;;5028169;28;20157;-56
2023/12/24 09:00:40;;;;;;;1.10;1.10;;;;;;;;;;5028587;28;20236;-57
2023/12/24 09:03:06;;;;;;;1.07;1.03;;;;;;;;;;5027276;28;20166;-56
2023/12/24 09:05:32;;;;;;;1.10;1.00;;;;;;;;;;5028857;28;20158;-56
2023/12/24 09:07:58;;;;;;;3.37;1.30;;;;;;;;;;5028144;28;20524;-56
2023/12/24 09:10:24;;;;;;;1.30;1.20;;;;;;;;;;5028351;28;20636;-58
2023/12/24 09:12:50;;;;;;;1.00;1.00;;;;;;;;;;5028179;28;20198;-56
2023/12/24 09:15:17;;;;;;;1.03;1.00;;;;;;;;;;5028224;28;20229;-55
2023/12/24 09:17:43;;;;;;;1.13;0.97;;;;;;;;;;5029385;28;20665;-56
2023/12/24 09:20:10;;;;;;;1.10;1.00;;;;;;;;;;5024673;28;20617;-56
2023/12/24 09:22:36;;;;;;;1.10;1.10;;;;;;;;;;5024950;28;20174;-56
2023/12/24 09:25:02;;;;;;;2.30;1.27;;;;;;;;;;5026267;28;20174;-56
2023/12/24 09:27:28;;;;;;;1.03;1.03;;;;;;;;;;5021743;28;20262;-55
2023/12/24 09:29:54;;;;;;;1.20;1.10;;;;;;;;;;5026187;28;20190;-55
2023/12/24 09:32:20;;;;;;;1.07;1.07;;;;;;;;;;5014779;28;20272;-57
2023/12/24 09:34:46;;;;;;;0.93;0.93;;;;;;;;;;5025846;28;20190;-56
2023/12/24 09:37:12;;;;;;;1.00;1.00;;;;;;;;;;5030578;28;20276;-56
2023/12/24 09:39:38;;;;;;;1.00;1.00;;;;;;;;;;5026072;28;20590;-56
2023/12/24 09:42:05;;;;;;;1.07;1.00;;;;;;;;;;5026128;28;20625;-56
2023/12/24 09:44:31;;;;;;;1.23;1.13;;;;;;;;;;5027014;28;20545;-57
2023/12/24 09:46:57;;;;;;;0.83;0.83;;;;;;;;;;5028203;28;20197;-57
2023/12/24 09:49:23;;;;;;;1.37;1.00;;;;;;;;;;5032629;28;20239;-56
2023/12/24 09:51:49;;;;;;;0.80;0.80;;;;;;;;;;5030797;28;20252;-58
2023/12/24 09:54:15;;;;;;;1.00;1.00;;;;;;;;;;5030157;28;20169;-54
2023/12/24 09:56:41;;;;;;;1.13;1.10;;;;;;;;;;5029641;28;20429;-56
2023/12/24 09:59:07;;;;;;;1.00;1.00;;;;;;;;;;5024892;28;20633;-55
2023/12/24 10:01:41;;;;;;;0.93;0.93;;;;;;;;;;5031319;28;20181;-55
2023/12/24 10:04:07;;;;;;;1.00;1.00;;;;;;;;;;5024596;28;20178;-56
2023/12/24 10:06:34;;;;;;;0.97;0.97;;;;;;;;;;5029637;28;20178;-56
2023/12/24 10:09:00;;;;;;;1.30;1.20;;;;;;;;;;5023600;28;20201;-55
2023/12/24 10:11:33;;;;;;;1.00;1.00;;;;;;;;;;5029490;28;20165;-56
2023/12/24 10:14:00;;;;;;;1.23;1.20;;;;;;;;;;5034335;28;20204;-56
2023/12/24 10:16:26;;;;;;;1.03;1.00;;;;;;;;;;5015672;28;20242;-56
2023/12/24 10:18:58;;;;;;;1.63;1.10;;;;;;;;;;5025325;28;20281;-55
2023/12/24 10:21:25;;;;;;;0.90;0.90;;;;;;;;;;5028151;28;20634;-56
2023/12/24 10:23:51;;;;;;;1.10;1.10;;;;;;;;;;5026844;28;20173;-56
2023/12/24 10:26:21;;;;;;;1.00;1.00;;;;;;;;;;5024751;28;20638;-56
2023/12/24 10:28:48;;;;;;;1.20;1.10;;;;;;;;;;5027549;28;20178;-55
2023/12/24 10:31:14;;;;;;;1.00;1.00;;;;;;;;;;5031868;28;20621;-56
2023/12/24 10:33:40;;;;;;;1.73;1.10;;;;;;;;;;5031362;28;20263;-55
2023/12/24 10:36:06;;;;;;;3.43;1.00;;;;;;;;;;5026498;28;20206;-56
2023/12/24 10:38:34;;;;;;;2.70;1.20;;;;;;;;;;5027995;28;20328;-56
2023/12/24 10:41:00;;;;;;;1.37;1.27;;;;;;;;;;5031168;28;20212;-54
2023/12/24 10:43:26;;;;;;;2.20;1.10;;;;;;;;;;5028266;28;20228;-56
2023/12/24 10:45:53;;;;;;;1.40;1.30;;;;;;;;;;5018181;28;20209;-55
2023/12/24 10:48:19;;;;;;;1.13;1.03;;;;;;;;;;5020897;28;20041;-56
2023/12/24 10:50:45;;;;;;;1.30;1.20;;;;;;;;;;5030118;28;20261;-56
2023/12/24 10:53:11;;;;;;;1.53;1.17;;;;;;;;;;5027555;28;20182;-56
2023/12/24 10:55:39;;;;;;;1.30;1.20;;;;;;;;;;5022546;28;20166;-56
2023/12/24 10:58:10;;;;;;;0.97;0.97;;;;;;;;;;5022947;28;20202;-56
2023/12/24 11:00:36;;;;;;;1.23;1.00;;;;;;;;;;5027388;28;20213;-55
2023/12/24 11:03:02;;;;;;;1.00;1.00;;;;;;;;;;5027056;28;20193;-55
2023/12/24 11:05:44;;;;;;;1.67;1.10;;;;;;;;;;5032220;28;20541;-56
2023/12/24 11:08:19;;;;;;;1.43;1.10;;;;;;;;;;5038026;28;20530;-56
2023/12/24 11:10:52;;;;;;;1.20;1.10;;;;;;;;;;5028131;28;20228;-57
2023/12/24 11:13:31;;;;;;;1.47;1.20;;;;;;;;;;5025903;28;20586;-56
2023/12/24 11:15:57;;;;;;;1.30;1.20;;;;;;;;;;5024523;28;20308;-58
2023/12/24 11:18:41;;;;;;;1.40;1.20;;;;;;;;;;5023278;28;20654;-57
2023/12/24 11:21:10;;;;;;;1.00;1.00;;;;;;;;;;5028067;28;20228;-58
2023/12/24 11:23:37;;;;;;;1.07;1.00;;;;;;;;;;5028827;28;20178;-56
2023/12/24 11:26:26;;;;;;;1.00;1.00;;;;;;;;;;5034745;28;20169;-56
2023/12/24 11:28:53;;;;;;;1.00;1.00;;;;;;;;;;5027562;28;20186;-57
2023/12/24 11:31:25;;;;;;;1.10;1.10;;;;;;;;;;5024427;28;21630;-56
2023/12/24 11:33:54;;;;;;;1.10;1.10;;;;;;;;;;5025213;28;20214;-58
2023/12/24 11:36:20;;;;;;;1.20;1.20;;;;;;;;;;5023613;28;20777;-59
2023/12/24 11:38:47;;;;;;;1.63;1.27;;;;;;;;;;5020675;28;20506;-59
2023/12/24 11:41:17;;;;;;;1.60;1.33;;;;;;;;;;5026036;28;20183;-58
2023/12/24 11:43:52;;;;;;;1.60;1.50;;;;;;;;;;5024026;28;20240;-58
2023/12/24 11:46:18;;;;;;;2.30;1.37;;;;;;;;;;5027838;28;20261;-58
2023/12/24 11:48:45;;;;;;;1.57;1.47;;;;;;;;;;5029073;28;20200;-59
2023/12/24 11:51:11;;;;;;;1.67;1.57;;;;;;;;;;5026772;28;20245;-58
2023/12/24 11:53:38;;;;;;;1.23;1.23;;;;;;;;;;5027316;28;20192;-58
2023/12/24 11:56:11;;;;;;;2.30;1.63;;;;;;;;;;5026644;28;20175;-59
2023/12/24 11:58:41;;;;;;;2.57;1.83;;;;;;;;;;5024579;28;20645;-59
2023/12/24 12:01:08;;;;;;;4.37;1.70;;;;;;;;;;5024569;28;20174;-58
2023/12/24 12:03:35;;;;;;;2.03;1.70;;;;;;;;;;5021128;28;20178;-59
2023/12/24 12:06:01;;;;;;;1.80;1.70;;;;;;;;;;5027510;28;20181;-59
2023/12/24 12:08:28;;;;;;;1.63;1.53;;;;;;;;;;5025989;28;20518;-59
2023/12/24 12:10:54;;;;;;;1.83;1.67;;;;;;;;;;5023545;28;20205;-58
2023/12/24 12:13:20;;;;;;;1.80;1.67;;;;;;;;;;5027125;28;20640;-58
2023/12/24 12:15:47;;;;;;;2.07;1.87;;;;;;;;;;5026379;28;20224;-59
2023/12/24 12:18:15;;;;;;;1.93;1.80;;;;;;;;;;5025203;28;20209;-58
2023/12/24 12:20:41;;;;;;;2.30;1.40;;;;;;;;;;5022459;28;20614;-58
2023/12/24 12:23:08;;;;;;;3.70;1.77;;;;;;;;;;5024466;28;20207;-59
2023/12/24 12:25:34;;;;;;;2.90;2.10;;;;;;;;;;5024177;28;20181;-58
2023/12/24 12:28:00;;;;;;;1.60;1.50;;;;;;;;;;5027251;28;20189;-59
2023/12/24 12:30:26;;;;;;;1.77;1.67;;;;;;;;;;5022545;28;20185;-58
2023/12/24 12:32:52;;;;;;;1.90;1.80;;;;;;;;;;5024046;28;20178;-58
2023/12/24 12:35:18;;;;;;;3.33;2.03;;;;;;;;;;5029617;28;20182;-58
2023/12/24 12:37:45;;;;;;;1.70;1.60;;;;;;;;;;5028421;28;20225;-58
2023/12/24 12:40:11;;;;;;;1.90;1.80;;;;;;;;;;5028573;28;20610;-58
2023/12/24 12:42:37;;;;;;;2.00;1.90;;;;;;;;;;5027779;28;20185;-57
2023/12/24 12:45:04;;;;;;;1.80;1.57;;;;;;;;;;5028024;28;20779;-57
2023/12/24 12:47:30;;;;;;;2.93;1.80;;;;;;;;;;5022856;28;20192;-57
2023/12/24 12:49:56;;;;;;;2.60;2.00;;;;;;;;;;5024913;28;20634;-57
2023/12/24 12:52:22;;;;;;;2.93;1.53;;;;;;;;;;5026099;28;20177;-57
2023/12/24 12:54:48;;;;;;;2.73;1.60;;;;;;;;;;5017049;28;20601;-57
2023/12/24 12:57:28;;;;;;;1.70;1.60;;;;;;;;;;5031718;28;20267;-57
2023/12/24 13:00:03;;;;;;;3.50;1.40;;;;;;;;;;5032657;28;20185;-57
2023/12/24 13:02:30;;;;;;;1.97;1.50;;;;;;;;;;5029909;28;20177;-57
2023/12/24 13:04:56;;;;;;;1.40;1.30;;;;;;;;;;5030347;28;20228;-57
2023/12/24 13:07:28;;;;;;;1.47;1.33;;;;;;;;;;5034474;28;20179;-57
2023/12/24 13:09:55;;;;;;;1.50;1.40;;;;;;;;;;5031904;28;20193;-57
2023/12/24 13:12:21;;;;;;;1.80;1.67;;;;;;;;;;5027742;28;20236;-57
2023/12/24 13:14:52;;;;;;;1.30;1.20;;;;;;;;;;5041108;28;20630;-58
2023/12/24 13:17:22;;;;;;;2.33;1.23;;;;;;;;;;5026890;28;20615;-58
2023/12/24 13:19:49;;;;;;;1.43;1.33;;;;;;;;;;5036981;28;20264;-58
2023/12/24 13:22:15;;;;;;;2.00;1.80;;;;;;;;;;5036079;28;20177;-58
2023/12/24 13:24:41;;;;;;;5.10;1.60;;;;;;;;;;5031570;28;20174;-57
2023/12/24 13:27:07;;;;;;;1.40;1.30;;;;;;;;;;5032711;28;20653;-57
2023/12/24 13:29:35;;;;;;;1.30;1.20;;;;;;;;;;5031662;28;20585;-57
2023/12/24 13:32:01;;;;;;;1.67;1.10;;;;;;;;;;5025095;28;20233;-57
2023/12/24 13:34:27;;;;;;;2.33;1.37;;;;;;;;;;5021745;28;20221;-58
2023/12/24 13:36:54;;;;;;;2.53;1.30;;;;;;;;;;5025556;28;20285;-57
2023/12/24 13:39:20;;;;;;;1.60;1.27;;;;;;;;;;5028970;28;20205;-57
2023/12/24 13:41:46;;;;;;;1.40;1.30;;;;;;;;;;5037184;28;20232;-57
2023/12/24 13:44:12;;;;;;;1.40;1.30;;;;;;;;;;5031854;28;20222;-57
2023/12/24 13:46:40;;;;;;;1.20;1.10;;;;;;;;;;5030081;28;20509;-57
2023/12/24 13:49:09;;;;;;;1.07;1.07;;;;;;;;;;5026738;28;20244;-57
2023/12/24 13:51:36;;;;;;;2.80;1.33;;;;;;;;;;5031181;28;20540;-57
2023/12/24 13:54:02;;;;;;;1.70;1.60;;;;;;;;;;5029918;28;20630;-56
2023/12/24 13:56:29;;;;;;;1.73;1.40;;;;;;;;;;5028950;28;20301;-57
2023/12/24 13:58:55;;;;;;;1.50;1.40;;;;;;;;;;5029667;28;20193;-55
2023/12/24 14:01:21;;;;;;;3.37;1.40;;;;;;;;;;5024650;28;20188;-55
2023/12/24 14:03:47;;;;;;;1.80;1.63;;;;;;;;;;5027483;28;20548;-55
2023/12/24 14:06:13;;;;;;;1.73;1.47;;;;;;;;;;5027487;28;20224;-56
2023/12/24 14:08:40;;;;;;;2.97;1.60;;;;;;;;;;5025272;28;20201;-54
2023/12/24 14:11:08;;;;;;;2.10;1.40;;;;;;;;;;5023906;28;20241;-55
2023/12/24 14:13:34;;;;;;;2.13;1.93;;;;;;;;;;5019542;28;20670;-54
2023/12/24 14:16:00;;;;;;;2.00;1.47;;;;;;;;;;5019298;28;20233;-55
2023/12/24 14:18:26;;;;;;;1.70;1.60;;;;;;;;;;5026476;28;20179;-56
2023/12/24 14:20:52;;;;;;;1.60;1.50;;;;;;;;;;5024398;28;20232;-55
2023/12/24 14:23:18;;;;;;;2.13;1.87;;;;;;;;;;5031689;28;20515;-55
2023/12/24 14:25:45;;;;;;;1.90;1.70;;;;;;;;;;5030459;28;20178;-56
2023/12/24 14:28:11;;;;;;;1.80;1.70;;;;;;;;;;5026891;28;20190;-56
2023/12/24 14:30:37;;;;;;;1.83;1.70;;;;;;;;;;5026981;28;20253;-56
2023/12/24 14:33:03;;;;;;;2.20;1.90;;;;;;;;;;5028871;28;20205;-56
2023/12/24 14:35:30;;;;;;;2.37;1.53;;;;;;;;;;5023248;28;20209;-55
2023/12/24 14:37:56;;;;;;;2.03;1.83;;;;;;;;;;5024176;28;20231;-55
2023/12/24 14:40:22;;;;;;;2.13;1.70;;;;;;;;;;5032639;28;20178;-55